sensor_id;sensor_type;location;lat;lon;timestamp;P1;durP1;ratioP1;P2;durP2;ratioP2
14984;SDS011;7588;62.368;25.902;2023-04-03T00:01:35;2.47;;;2.27;;
14984;SDS011;7588;62.368;25.902;2023-04-03T00:04:03;4.90;;;2.10;;
14984;SDS011;7588;62.368;25.902;2023-04-03T00:06:30;3.50;;;3.20;;
14984;SDS011;7588;62.368;25.902;2023-04-03T00:08:56;3.97;;;2.50;;
14984;SDS011;7588;62.368;25.902;2023-04-03T00:11:21;3.33;;;2.20;;
14984;SDS011;7588;62.368;25.902;2023-04-03T00:13:47;3.47;;;3.20;;
14984;SDS011;7588;62.368;25.902;2023-04-03T00:16:13;3.00;;;2.87;;
14984;SDS011;7588;62.368;25.902;2023-04-03T00:18:39;4.40;;;2.97;;
14984;SDS011;7588;62.368;25.902;2023-04-03T00:21:05;3.07;;;2.10;;
14984;SDS011;7588;62.368;25.902;2023-04-03T00:23:32;3.27;;;3.07;;
14984;SDS011;7588;62.368;25.902;2023-04-03T00:25:58;3.23;;;2.77;;
14984;SDS011;7588;62.368;25.902;2023-04-03T00:28:24;3.30;;;2.97;;
14984;SDS011;7588;62.368;25.902;2023-04-03T00:30:50;2.73;;;2.50;;
14984;SDS011;7588;62.368;25.902;2023-04-03T00:33:16;4.43;;;2.90;;
14984;SDS011;7588;62.368;25.902;2023-04-03T00:35:42;3.13;;;2.30;;
14984;SDS011;7588;62.368;25.902;2023-04-03T00:38:08;3.10;;;2.50;;
14984;SDS011;7588;62.368;25.902;2023-04-03T00:40:36;5.13;;;2.73;;
14984;SDS011;7588;62.368;25.902;2023-04-03T00:43:08;6.10;;;2.60;;
14984;SDS011;7588;62.368;25.902;2023-04-03T00:45:41;2.50;;;2.23;;
14984;SDS011;7588;62.368;25.902;2023-04-03T00:48:13;2.87;;;2.63;;
14984;SDS011;7588;62.368;25.902;2023-04-03T00:50:58;2.80;;;2.60;;
14984;SDS011;7588;62.368;25.902;2023-04-03T00:53:26;4.10;;;2.30;;
14984;SDS011;7588;62.368;25.902;2023-04-03T00:55:56;2.70;;;2.50;;
14984;SDS011;7588;62.368;25.902;2023-04-03T00:58:23;6.17;;;2.83;;
14984;SDS011;7588;62.368;25.902;2023-04-03T01:01:07;5.30;;;3.10;;
14984;SDS011;7588;62.368;25.902;2023-04-03T01:03:36;3.47;;;3.17;;
14984;SDS011;7588;62.368;25.902;2023-04-03T01:06:02;3.57;;;2.80;;
14984;SDS011;7588;62.368;25.902;2023-04-03T01:08:28;4.33;;;2.23;;
14984;SDS011;7588;62.368;25.902;2023-04-03T01:10:54;2.83;;;2.67;;
14984;SDS011;7588;62.368;25.902;2023-04-03T01:13:22;3.63;;;2.43;;
14984;SDS011;7588;62.368;25.902;2023-04-03T01:15:53;2.93;;;2.70;;
14984;SDS011;7588;62.368;25.902;2023-04-03T01:18:19;4.43;;;2.50;;
14984;SDS011;7588;62.368;25.902;2023-04-03T01:20:57;2.93;;;2.73;;
14984;SDS011;7588;62.368;25.902;2023-04-03T01:26:48;8.57;;;3.33;;
14984;SDS011;7588;62.368;25.902;2023-04-03T01:29:15;3.03;;;2.80;;
14984;SDS011;7588;62.368;25.902;2023-04-03T01:31:54;2.23;;;2.13;;
14984;SDS011;7588;62.368;25.902;2023-04-03T01:34:22;3.50;;;2.90;;
14984;SDS011;7588;62.368;25.902;2023-04-03T01:36:48;4.47;;;3.07;;
14984;SDS011;7588;62.368;25.902;2023-04-03T01:39:14;2.90;;;2.70;;
14984;SDS011;7588;62.368;25.902;2023-04-03T01:41:40;2.73;;;2.43;;
14984;SDS011;7588;62.368;25.902;2023-04-03T01:44:05;2.63;;;2.40;;
14984;SDS011;7588;62.368;25.902;2023-04-03T01:46:31;4.77;;;2.77;;
14984;SDS011;7588;62.368;25.902;2023-04-03T01:48:57;3.37;;;3.03;;
14984;SDS011;7588;62.368;25.902;2023-04-03T01:51:23;2.80;;;2.63;;
14984;SDS011;7588;62.368;25.902;2023-04-03T01:53:48;2.40;;;2.30;;
14984;SDS011;7588;62.368;25.902;2023-04-03T01:56:14;3.50;;;2.50;;
14984;SDS011;7588;62.368;25.902;2023-04-03T01:58:40;3.40;;;3.20;;
14984;SDS011;7588;62.368;25.902;2023-04-03T02:01:06;3.23;;;3.03;;
14984;SDS011;7588;62.368;25.902;2023-04-03T02:03:32;3.10;;;2.20;;
14984;SDS011;7588;62.368;25.902;2023-04-03T02:05:58;3.37;;;2.10;;
14984;SDS011;7588;62.368;25.902;2023-04-03T02:08:24;4.97;;;2.37;;
14984;SDS011;7588;62.368;25.902;2023-04-03T02:10:50;3.13;;;2.90;;
14984;SDS011;7588;62.368;25.902;2023-04-03T02:13:16;3.20;;;3.00;;
14984;SDS011;7588;62.368;25.902;2023-04-03T02:15:43;3.00;;;2.20;;
14984;SDS011;7588;62.368;25.902;2023-04-03T02:18:08;37.73;;;5.53;;
14984;SDS011;7588;62.368;25.902;2023-04-03T02:20:34;10.20;;;3.27;;
14984;SDS011;7588;62.368;25.902;2023-04-03T02:23:00;6.80;;;3.33;;
14984;SDS011;7588;62.368;25.902;2023-04-03T02:25:26;4.93;;;3.60;;
14984;SDS011;7588;62.368;25.902;2023-04-03T02:27:52;9.90;;;2.87;;
14984;SDS011;7588;62.368;25.902;2023-04-03T02:30:18;3.60;;;2.13;;
14984;SDS011;7588;62.368;25.902;2023-04-03T02:32:44;3.87;;;2.60;;
14984;SDS011;7588;62.368;25.902;2023-04-03T02:35:11;3.53;;;2.67;;
14984;SDS011;7588;62.368;25.902;2023-04-03T02:37:37;2.63;;;2.50;;
14984;SDS011;7588;62.368;25.902;2023-04-03T02:40:03;2.87;;;2.67;;
14984;SDS011;7588;62.368;25.902;2023-04-03T02:42:30;3.47;;;2.70;;
14984;SDS011;7588;62.368;25.902;2023-04-03T02:44:56;2.77;;;2.57;;
14984;SDS011;7588;62.368;25.902;2023-04-03T02:47:21;2.70;;;2.60;;
14984;SDS011;7588;62.368;25.902;2023-04-03T02:49:47;3.00;;;2.40;;
14984;SDS011;7588;62.368;25.902;2023-04-03T02:52:13;4.93;;;2.80;;
14984;SDS011;7588;62.368;25.902;2023-04-03T02:54:39;5.93;;;2.60;;
14984;SDS011;7588;62.368;25.902;2023-04-03T02:57:05;2.87;;;2.63;;
14984;SDS011;7588;62.368;25.902;2023-04-03T02:59:33;3.27;;;2.60;;
14984;SDS011;7588;62.368;25.902;2023-04-03T03:02:00;3.53;;;3.17;;
14984;SDS011;7588;62.368;25.902;2023-04-03T03:04:25;3.90;;;3.50;;
14984;SDS011;7588;62.368;25.902;2023-04-03T03:06:51;3.87;;;2.33;;
14984;SDS011;7588;62.368;25.902;2023-04-03T03:09:17;2.53;;;2.43;;
14984;SDS011;7588;62.368;25.902;2023-04-03T03:11:43;5.07;;;2.73;;
14984;SDS011;7588;62.368;25.902;2023-04-03T03:14:09;3.77;;;2.80;;
14984;SDS011;7588;62.368;25.902;2023-04-03T03:16:35;2.90;;;2.70;;
14984;SDS011;7588;62.368;25.902;2023-04-03T03:19:00;5.00;;;3.20;;
14984;SDS011;7588;62.368;25.902;2023-04-03T03:21:26;4.53;;;3.30;;
14984;SDS011;7588;62.368;25.902;2023-04-03T03:23:52;2.93;;;2.70;;
14984;SDS011;7588;62.368;25.902;2023-04-03T03:26:18;3.17;;;2.80;;
14984;SDS011;7588;62.368;25.902;2023-04-03T03:28:43;5.63;;;3.00;;
14984;SDS011;7588;62.368;25.902;2023-04-03T03:31:09;14.63;;;3.60;;
14984;SDS011;7588;62.368;25.902;2023-04-03T03:33:35;15.80;;;4.13;;
14984;SDS011;7588;62.368;25.902;2023-04-03T03:36:01;19.67;;;3.93;;
14984;SDS011;7588;62.368;25.902;2023-04-03T03:38:27;4.60;;;3.50;;
14984;SDS011;7588;62.368;25.902;2023-04-03T03:40:52;5.67;;;2.80;;
14984;SDS011;7588;62.368;25.902;2023-04-03T03:43:18;3.23;;;2.90;;
14984;SDS011;7588;62.368;25.902;2023-04-03T03:45:45;3.93;;;3.07;;
14984;SDS011;7588;62.368;25.902;2023-04-03T03:48:16;8.43;;;2.87;;
14984;SDS011;7588;62.368;25.902;2023-04-03T03:50:41;3.70;;;2.60;;
14984;SDS011;7588;62.368;25.902;2023-04-03T03:53:07;3.70;;;3.27;;
14984;SDS011;7588;62.368;25.902;2023-04-03T03:55:33;3.30;;;3.00;;
14984;SDS011;7588;62.368;25.902;2023-04-03T03:57:58;5.23;;;3.33;;
14984;SDS011;7588;62.368;25.902;2023-04-03T04:00:26;12.20;;;4.27;;
14984;SDS011;7588;62.368;25.902;2023-04-03T04:02:51;9.37;;;3.80;;
14984;SDS011;7588;62.368;25.902;2023-04-03T04:05:17;4.40;;;3.17;;
14984;SDS011;7588;62.368;25.902;2023-04-03T04:07:43;4.40;;;2.97;;
14984;SDS011;7588;62.368;25.902;2023-04-03T04:10:08;3.70;;;3.13;;
14984;SDS011;7588;62.368;25.902;2023-04-03T04:12:34;8.60;;;3.70;;
14984;SDS011;7588;62.368;25.902;2023-04-03T04:15:00;9.63;;;2.70;;
14984;SDS011;7588;62.368;25.902;2023-04-03T04:17:27;4.47;;;3.03;;
14984;SDS011;7588;62.368;25.902;2023-04-03T04:19:53;7.20;;;2.93;;
14984;SDS011;7588;62.368;25.902;2023-04-03T04:22:18;3.43;;;3.23;;
14984;SDS011;7588;62.368;25.902;2023-04-03T04:24:44;3.23;;;2.70;;
14984;SDS011;7588;62.368;25.902;2023-04-03T04:27:10;7.67;;;3.40;;
14984;SDS011;7588;62.368;25.902;2023-04-03T04:29:35;5.37;;;2.83;;
14984;SDS011;7588;62.368;25.902;2023-04-03T04:32:05;3.83;;;3.03;;
14984;SDS011;7588;62.368;25.902;2023-04-03T04:34:30;3.10;;;2.93;;
14984;SDS011;7588;62.368;25.902;2023-04-03T04:36:56;3.63;;;3.30;;
14984;SDS011;7588;62.368;25.902;2023-04-03T04:39:22;7.20;;;3.17;;
14984;SDS011;7588;62.368;25.902;2023-04-03T04:41:48;3.60;;;3.30;;
14984;SDS011;7588;62.368;25.902;2023-04-03T04:44:13;3.80;;;3.50;;
14984;SDS011;7588;62.368;25.902;2023-04-03T04:46:39;3.53;;;3.23;;
14984;SDS011;7588;62.368;25.902;2023-04-03T04:49:05;6.07;;;2.80;;
14984;SDS011;7588;62.368;25.902;2023-04-03T04:51:31;2.77;;;2.50;;
14984;SDS011;7588;62.368;25.902;2023-04-03T04:53:56;3.93;;;2.77;;
14984;SDS011;7588;62.368;25.902;2023-04-03T04:56:22;3.30;;;3.00;;
14984;SDS011;7588;62.368;25.902;2023-04-03T04:58:48;3.00;;;2.67;;
14984;SDS011;7588;62.368;25.902;2023-04-03T05:01:14;10.20;;;2.50;;
14984;SDS011;7588;62.368;25.902;2023-04-03T05:03:40;10.33;;;3.80;;
14984;SDS011;7588;62.368;25.902;2023-04-03T05:06:05;2.80;;;2.60;;
14984;SDS011;7588;62.368;25.902;2023-04-03T05:08:32;10.23;;;2.97;;
14984;SDS011;7588;62.368;25.902;2023-04-03T05:10:57;23.33;;;3.97;;
14984;SDS011;7588;62.368;25.902;2023-04-03T05:13:23;6.23;;;2.40;;
14984;SDS011;7588;62.368;25.902;2023-04-03T05:15:49;7.37;;;2.90;;
14984;SDS011;7588;62.368;25.902;2023-04-03T05:18:15;3.03;;;2.77;;
14984;SDS011;7588;62.368;25.902;2023-04-03T05:20:40;3.20;;;2.73;;
14984;SDS011;7588;62.368;25.902;2023-04-03T05:23:08;3.07;;;2.60;;
14984;SDS011;7588;62.368;25.902;2023-04-03T05:25:34;3.67;;;3.10;;
14984;SDS011;7588;62.368;25.902;2023-04-03T05:28:03;4.17;;;3.20;;
14984;SDS011;7588;62.368;25.902;2023-04-03T05:30:28;5.97;;;2.83;;
14984;SDS011;7588;62.368;25.902;2023-04-03T05:32:54;3.20;;;2.90;;
14984;SDS011;7588;62.368;25.902;2023-04-03T05:35:20;3.57;;;3.27;;
14984;SDS011;7588;62.368;25.902;2023-04-03T05:37:46;7.20;;;2.90;;
14984;SDS011;7588;62.368;25.902;2023-04-03T05:40:12;2.63;;;2.43;;
14984;SDS011;7588;62.368;25.902;2023-04-03T05:42:38;3.60;;;3.30;;
14984;SDS011;7588;62.368;25.902;2023-04-03T05:45:04;4.17;;;2.30;;
14984;SDS011;7588;62.368;25.902;2023-04-03T05:47:30;8.23;;;2.90;;
14984;SDS011;7588;62.368;25.902;2023-04-03T05:49:56;3.27;;;2.93;;
14984;SDS011;7588;62.368;25.902;2023-04-03T05:54:52;5.40;;;2.60;;
14984;SDS011;7588;62.368;25.902;2023-04-03T05:57:18;4.07;;;2.90;;
14984;SDS011;7588;62.368;25.902;2023-04-03T05:59:44;3.93;;;3.10;;
14984;SDS011;7588;62.368;25.902;2023-04-03T06:02:15;6.43;;;2.40;;
14984;SDS011;7588;62.368;25.902;2023-04-03T06:04:42;6.07;;;2.80;;
14984;SDS011;7588;62.368;25.902;2023-04-03T06:07:12;7.77;;;2.80;;
14984;SDS011;7588;62.368;25.902;2023-04-03T06:09:40;3.70;;;2.70;;
14984;SDS011;7588;62.368;25.902;2023-04-03T06:12:07;6.07;;;2.90;;
14984;SDS011;7588;62.368;25.902;2023-04-03T06:14:33;6.23;;;3.37;;
14984;SDS011;7588;62.368;25.902;2023-04-03T06:16:59;3.90;;;3.60;;
14984;SDS011;7588;62.368;25.902;2023-04-03T06:19:25;19.50;;;4.17;;
14984;SDS011;7588;62.368;25.902;2023-04-03T06:21:51;5.20;;;3.70;;
14984;SDS011;7588;62.368;25.902;2023-04-03T06:24:17;3.30;;;2.40;;
14984;SDS011;7588;62.368;25.902;2023-04-03T06:26:44;4.27;;;3.23;;
14984;SDS011;7588;62.368;25.902;2023-04-03T06:29:11;4.03;;;2.90;;
14984;SDS011;7588;62.368;25.902;2023-04-03T06:31:36;2.83;;;2.57;;
14984;SDS011;7588;62.368;25.902;2023-04-03T06:34:03;5.07;;;2.97;;
14984;SDS011;7588;62.368;25.902;2023-04-03T06:36:29;3.93;;;2.80;;
14984;SDS011;7588;62.368;25.902;2023-04-03T06:38:55;3.77;;;2.60;;
14984;SDS011;7588;62.368;25.902;2023-04-03T06:41:20;6.10;;;2.50;;
14984;SDS011;7588;62.368;25.902;2023-04-03T06:43:47;6.73;;;2.17;;
14984;SDS011;7588;62.368;25.902;2023-04-03T06:46:16;23.27;;;3.27;;
14984;SDS011;7588;62.368;25.902;2023-04-03T06:48:43;7.40;;;2.83;;
14984;SDS011;7588;62.368;25.902;2023-04-03T06:51:20;3.13;;;2.40;;
14984;SDS011;7588;62.368;25.902;2023-04-03T06:53:51;3.17;;;2.83;;
14984;SDS011;7588;62.368;25.902;2023-04-03T06:56:18;4.70;;;2.57;;
14984;SDS011;7588;62.368;25.902;2023-04-03T06:58:44;3.67;;;2.03;;
14984;SDS011;7588;62.368;25.902;2023-04-03T07:01:12;4.63;;;4.23;;
14984;SDS011;7588;62.368;25.902;2023-04-03T07:03:39;5.13;;;2.37;;
14984;SDS011;7588;62.368;25.902;2023-04-03T07:06:06;3.87;;;2.47;;
14984;SDS011;7588;62.368;25.902;2023-04-03T07:08:33;3.33;;;1.93;;
14984;SDS011;7588;62.368;25.902;2023-04-03T07:10:59;12.90;;;2.77;;
14984;SDS011;7588;62.368;25.902;2023-04-03T07:13:26;2.40;;;2.17;;
14984;SDS011;7588;62.368;25.902;2023-04-03T07:15:52;3.90;;;2.03;;
14984;SDS011;7588;62.368;25.902;2023-04-03T07:18:18;5.20;;;1.93;;
14984;SDS011;7588;62.368;25.902;2023-04-03T07:20:44;3.10;;;1.90;;
14984;SDS011;7588;62.368;25.902;2023-04-03T07:23:10;1.60;;;1.50;;
14984;SDS011;7588;62.368;25.902;2023-04-03T07:25:36;1.83;;;1.73;;
14984;SDS011;7588;62.368;25.902;2023-04-03T07:28:02;3.70;;;1.70;;
14984;SDS011;7588;62.368;25.902;2023-04-03T07:30:28;4.73;;;1.63;;
14984;SDS011;7588;62.368;25.902;2023-04-03T07:32:54;4.33;;;1.40;;
14984;SDS011;7588;62.368;25.902;2023-04-03T07:35:20;3.83;;;2.27;;
14984;SDS011;7588;62.368;25.902;2023-04-03T07:37:46;4.13;;;1.30;;
14984;SDS011;7588;62.368;25.902;2023-04-03T07:40:11;2.70;;;1.30;;
14984;SDS011;7588;62.368;25.902;2023-04-03T07:42:37;4.00;;;1.60;;
14984;SDS011;7588;62.368;25.902;2023-04-03T07:45:03;3.13;;;1.40;;
14984;SDS011;7588;62.368;25.902;2023-04-03T07:47:29;3.47;;;1.60;;
14984;SDS011;7588;62.368;25.902;2023-04-03T07:49:56;2.57;;;1.60;;
14984;SDS011;7588;62.368;25.902;2023-04-03T07:52:22;3.10;;;1.57;;
14984;SDS011;7588;62.368;25.902;2023-04-03T07:54:48;3.80;;;1.53;;
14984;SDS011;7588;62.368;25.902;2023-04-03T07:57:14;3.60;;;1.60;;
14984;SDS011;7588;62.368;25.902;2023-04-03T07:59:40;3.43;;;1.70;;
14984;SDS011;7588;62.368;25.902;2023-04-03T08:02:10;2.47;;;1.27;;
14984;SDS011;7588;62.368;25.902;2023-04-03T08:04:36;1.93;;;1.77;;
14984;SDS011;7588;62.368;25.902;2023-04-03T08:07:02;1.30;;;1.10;;
14984;SDS011;7588;62.368;25.902;2023-04-03T08:09:28;1.70;;;1.60;;
14984;SDS011;7588;62.368;25.902;2023-04-03T08:11:54;1.90;;;1.70;;
14984;SDS011;7588;62.368;25.902;2023-04-03T08:14:19;1.60;;;1.50;;
14984;SDS011;7588;62.368;25.902;2023-04-03T08:16:46;3.37;;;1.50;;
14984;SDS011;7588;62.368;25.902;2023-04-03T08:19:13;7.27;;;2.00;;
14984;SDS011;7588;62.368;25.902;2023-04-03T08:21:40;4.70;;;1.67;;
14984;SDS011;7588;62.368;25.902;2023-04-03T08:24:07;3.43;;;1.60;;
14984;SDS011;7588;62.368;25.902;2023-04-03T08:26:33;2.43;;;1.23;;
14984;SDS011;7588;62.368;25.902;2023-04-03T08:28:59;3.43;;;1.60;;
14984;SDS011;7588;62.368;25.902;2023-04-03T08:31:25;2.03;;;1.20;;
14984;SDS011;7588;62.368;25.902;2023-04-03T08:33:51;1.80;;;1.40;;
14984;SDS011;7588;62.368;25.902;2023-04-03T08:36:27;2.17;;;1.47;;
14984;SDS011;7588;62.368;25.902;2023-04-03T08:38:55;4.17;;;1.33;;
14984;SDS011;7588;62.368;25.902;2023-04-03T08:44:19;2.13;;;1.10;;
14984;SDS011;7588;62.368;25.902;2023-04-03T08:49:28;4.77;;;1.23;;
14984;SDS011;7588;62.368;25.902;2023-04-03T08:51:57;1.93;;;1.13;;
14984;SDS011;7588;62.368;25.902;2023-04-03T08:54:37;3.80;;;1.80;;
14984;SDS011;7588;62.368;25.902;2023-04-03T08:57:14;6.03;;;1.47;;
14984;SDS011;7588;62.368;25.902;2023-04-03T08:59:41;1.60;;;1.30;;
14984;SDS011;7588;62.368;25.902;2023-04-03T09:04:54;2.13;;;1.23;;
14984;SDS011;7588;62.368;25.902;2023-04-03T09:07:22;0.90;;;0.90;;
14984;SDS011;7588;62.368;25.902;2023-04-03T09:10:12;6.40;;;1.27;;
14984;SDS011;7588;62.368;25.902;2023-04-03T09:12:41;5.77;;;1.07;;
14984;SDS011;7588;62.368;25.902;2023-04-03T09:17:46;4.80;;;1.47;;
14984;SDS011;7588;62.368;25.902;2023-04-03T09:22:56;2.50;;;1.43;;
14984;SDS011;7588;62.368;25.902;2023-04-03T09:25:23;3.17;;;1.10;;
14984;SDS011;7588;62.368;25.902;2023-04-03T09:27:53;3.60;;;1.57;;
14984;SDS011;7588;62.368;25.902;2023-04-03T09:30:22;3.27;;;1.30;;
14984;SDS011;7588;62.368;25.902;2023-04-03T09:32:51;1.37;;;0.97;;
14984;SDS011;7588;62.368;25.902;2023-04-03T09:37:51;3.13;;;1.30;;
14984;SDS011;7588;62.368;25.902;2023-04-03T09:42:51;1.83;;;1.53;;
14984;SDS011;7588;62.368;25.902;2023-04-03T09:45:22;1.57;;;1.00;;
14984;SDS011;7588;62.368;25.902;2023-04-03T09:48:07;1.50;;;1.07;;
14984;SDS011;7588;62.368;25.902;2023-04-03T09:53:30;1.93;;;0.93;;
14984;SDS011;7588;62.368;25.902;2023-04-03T09:55:56;2.37;;;1.20;;
14984;SDS011;7588;62.368;25.902;2023-04-03T09:58:23;13.43;;;2.63;;
14984;SDS011;7588;62.368;25.902;2023-04-03T10:00:59;2.60;;;1.00;;
14984;SDS011;7588;62.368;25.902;2023-04-03T10:03:28;2.07;;;1.10;;
14984;SDS011;7588;62.368;25.902;2023-04-03T10:06:02;1.27;;;1.17;;
14984;SDS011;7588;62.368;25.902;2023-04-03T10:08:33;4.37;;;1.37;;
14984;SDS011;7588;62.368;25.902;2023-04-03T10:13:34;0.93;;;0.93;;
14984;SDS011;7588;62.368;25.902;2023-04-03T10:16:09;2.27;;;1.20;;
14984;SDS011;7588;62.368;25.902;2023-04-03T10:21:15;3.13;;;1.07;;
14984;SDS011;7588;62.368;25.902;2023-04-03T10:23:47;4.87;;;1.20;;
14984;SDS011;7588;62.368;25.902;2023-04-03T10:29:10;0.93;;;0.80;;
14984;SDS011;7588;62.368;25.902;2023-04-03T10:34:44;1.10;;;0.90;;
14984;SDS011;7588;62.368;25.902;2023-04-03T10:42:49;1.33;;;1.20;;
14984;SDS011;7588;62.368;25.902;2023-04-03T10:45:26;1.43;;;1.13;;
14984;SDS011;7588;62.368;25.902;2023-04-03T10:48:16;3.50;;;1.77;;
14984;SDS011;7588;62.368;25.902;2023-04-03T10:53:55;3.73;;;1.57;;
14984;SDS011;7588;62.368;25.902;2023-04-03T11:01:44;1.20;;;0.90;;
14984;SDS011;7588;62.368;25.902;2023-04-03T11:04:12;5.30;;;1.27;;
14984;SDS011;7588;62.368;25.902;2023-04-03T11:06:49;0.90;;;0.90;;
14984;SDS011;7588;62.368;25.902;2023-04-03T11:09:38;1.57;;;0.90;;
14984;SDS011;7588;62.368;25.902;2023-04-03T11:12:11;2.17;;;1.10;;
14984;SDS011;7588;62.368;25.902;2023-04-03T11:14:42;4.37;;;1.47;;
14984;SDS011;7588;62.368;25.902;2023-04-03T11:17:43;1.80;;;1.10;;
14984;SDS011;7588;62.368;25.902;2023-04-03T11:25:39;2.60;;;1.10;;
14984;SDS011;7588;62.368;25.902;2023-04-03T11:28:12;1.53;;;0.90;;
14984;SDS011;7588;62.368;25.902;2023-04-03T11:36:24;2.00;;;1.00;;
14984;SDS011;7588;62.368;25.902;2023-04-03T11:38:54;4.70;;;1.00;;
14984;SDS011;7588;62.368;25.902;2023-04-03T11:41:27;2.87;;;1.40;;
14984;SDS011;7588;62.368;25.902;2023-04-03T11:44:05;1.37;;;1.27;;
14984;SDS011;7588;62.368;25.902;2023-04-03T11:46:54;1.47;;;1.30;;
14984;SDS011;7588;62.368;25.902;2023-04-03T12:29:51;1.20;;;1.10;;
14984;SDS011;7588;62.368;25.902;2023-04-03T12:32:26;1.27;;;1.10;;
14984;SDS011;7588;62.368;25.902;2023-04-03T12:35:10;3.80;;;0.90;;
14984;SDS011;7588;62.368;25.902;2023-04-03T12:46:12;1.77;;;1.00;;
14984;SDS011;7588;62.368;25.902;2023-04-03T12:51:13;2.03;;;1.10;;
14984;SDS011;7588;62.368;25.902;2023-04-03T12:53:48;1.30;;;1.20;;
14984;SDS011;7588;62.368;25.902;2023-04-03T12:58:51;6.90;;;1.50;;
14984;SDS011;7588;62.368;25.902;2023-04-03T13:01:21;2.47;;;1.20;;
14984;SDS011;7588;62.368;25.902;2023-04-03T13:03:55;1.80;;;1.10;;
14984;SDS011;7588;62.368;25.902;2023-04-03T13:06:24;1.30;;;1.03;;
14984;SDS011;7588;62.368;25.902;2023-04-03T13:08:52;1.87;;;0.93;;
14984;SDS011;7588;62.368;25.902;2023-04-03T13:11:23;2.50;;;1.30;;
14984;SDS011;7588;62.368;25.902;2023-04-03T13:16:41;1.63;;;1.20;;
14984;SDS011;7588;62.368;25.902;2023-04-03T13:19:14;1.20;;;1.10;;
14984;SDS011;7588;62.368;25.902;2023-04-03T13:21:41;1.97;;;1.10;;
14984;SDS011;7588;62.368;25.902;2023-04-03T13:24:09;1.30;;;1.20;;
14984;SDS011;7588;62.368;25.902;2023-04-03T13:26:35;0.97;;;0.90;;
14984;SDS011;7588;62.368;25.902;2023-04-03T13:29:03;1.57;;;1.20;;
14984;SDS011;7588;62.368;25.902;2023-04-03T13:31:34;1.40;;;1.10;;
14984;SDS011;7588;62.368;25.902;2023-04-03T13:36:31;1.50;;;1.40;;
14984;SDS011;7588;62.368;25.902;2023-04-03T13:39:20;1.50;;;1.40;;
14984;SDS011;7588;62.368;25.902;2023-04-03T13:41:50;2.87;;;2.17;;
14984;SDS011;7588;62.368;25.902;2023-04-03T13:44:25;1.87;;;1.40;;
14984;SDS011;7588;62.368;25.902;2023-04-03T13:46:59;1.50;;;1.40;;
14984;SDS011;7588;62.368;25.902;2023-04-03T13:49:39;1.90;;;1.57;;
14984;SDS011;7588;62.368;25.902;2023-04-03T14:03:11;1.50;;;1.40;;
14984;SDS011;7588;62.368;25.902;2023-04-03T14:05:49;2.50;;;1.27;;
14984;SDS011;7588;62.368;25.902;2023-04-03T14:08:15;1.50;;;1.40;;
14984;SDS011;7588;62.368;25.902;2023-04-03T14:10:42;7.63;;;1.50;;
14984;SDS011;7588;62.368;25.902;2023-04-03T14:13:12;2.07;;;1.50;;
14984;SDS011;7588;62.368;25.902;2023-04-03T14:15:40;1.70;;;1.47;;
14984;SDS011;7588;62.368;25.902;2023-04-03T14:18:06;2.37;;;2.03;;
14984;SDS011;7588;62.368;25.902;2023-04-03T14:20:31;2.07;;;1.87;;
14984;SDS011;7588;62.368;25.902;2023-04-03T14:22:57;2.20;;;2.00;;
14984;SDS011;7588;62.368;25.902;2023-04-03T14:25:23;4.13;;;2.13;;
14984;SDS011;7588;62.368;25.902;2023-04-03T14:27:53;2.30;;;2.20;;
14984;SDS011;7588;62.368;25.902;2023-04-03T14:32:47;3.60;;;2.00;;
14984;SDS011;7588;62.368;25.902;2023-04-03T14:35:14;1.77;;;1.67;;
14984;SDS011;7588;62.368;25.902;2023-04-03T14:37:41;3.53;;;1.70;;
14984;SDS011;7588;62.368;25.902;2023-04-03T14:40:08;2.93;;;1.70;;
14984;SDS011;7588;62.368;25.902;2023-04-03T14:42:38;1.80;;;1.70;;
14984;SDS011;7588;62.368;25.902;2023-04-03T14:45:05;2.17;;;1.63;;
14984;SDS011;7588;62.368;25.902;2023-04-03T14:47:33;2.27;;;1.70;;
14984;SDS011;7588;62.368;25.902;2023-04-03T14:50:25;1.30;;;1.30;;
14984;SDS011;7588;62.368;25.902;2023-04-03T14:52:53;1.63;;;1.53;;
14984;SDS011;7588;62.368;25.902;2023-04-03T14:55:22;1.60;;;1.47;;
14984;SDS011;7588;62.368;25.902;2023-04-03T14:57:49;15.17;;;2.70;;
14984;SDS011;7588;62.368;25.902;2023-04-03T15:00:18;2.23;;;1.93;;
14984;SDS011;7588;62.368;25.902;2023-04-03T15:02:45;2.03;;;1.80;;
14984;SDS011;7588;62.368;25.902;2023-04-03T15:05:12;3.53;;;1.60;;
14984;SDS011;7588;62.368;25.902;2023-04-03T15:07:41;1.93;;;1.60;;
14984;SDS011;7588;62.368;25.902;2023-04-03T15:10:23;4.10;;;1.70;;
14984;SDS011;7588;62.368;25.902;2023-04-03T15:12:50;1.70;;;1.60;;
14984;SDS011;7588;62.368;25.902;2023-04-03T15:15:17;1.70;;;1.60;;
14984;SDS011;7588;62.368;25.902;2023-04-03T15:17:45;3.53;;;1.73;;
14984;SDS011;7588;62.368;25.902;2023-04-03T15:20:15;1.60;;;1.43;;
14984;SDS011;7588;62.368;25.902;2023-04-03T15:22:42;1.83;;;1.67;;
14984;SDS011;7588;62.368;25.902;2023-04-03T15:25:08;2.10;;;1.37;;
14984;SDS011;7588;62.368;25.902;2023-04-03T15:27:35;2.97;;;1.87;;
14984;SDS011;7588;62.368;25.902;2023-04-03T15:30:01;2.07;;;1.87;;
14984;SDS011;7588;62.368;25.902;2023-04-03T15:32:28;3.57;;;2.47;;
14984;SDS011;7588;62.368;25.902;2023-04-03T15:34:54;2.30;;;2.17;;
14984;SDS011;7588;62.368;25.902;2023-04-03T15:37:20;4.23;;;2.47;;
14984;SDS011;7588;62.368;25.902;2023-04-03T15:39:46;6.27;;;2.50;;
14984;SDS011;7588;62.368;25.902;2023-04-03T15:42:11;1.87;;;1.77;;
14984;SDS011;7588;62.368;25.902;2023-04-03T15:44:37;2.23;;;2.03;;
14984;SDS011;7588;62.368;25.902;2023-04-03T15:47:03;2.50;;;1.70;;
14984;SDS011;7588;62.368;25.902;2023-04-03T15:49:29;3.30;;;1.97;;
14984;SDS011;7588;62.368;25.902;2023-04-03T15:51:57;3.90;;;2.00;;
14984;SDS011;7588;62.368;25.902;2023-04-03T15:54:23;5.60;;;2.00;;
14984;SDS011;7588;62.368;25.902;2023-04-03T15:56:49;1.83;;;1.73;;
14984;SDS011;7588;62.368;25.902;2023-04-03T15:59:15;1.70;;;1.60;;
14984;SDS011;7588;62.368;25.902;2023-04-03T16:01:41;1.80;;;1.70;;
14984;SDS011;7588;62.368;25.902;2023-04-03T16:04:07;1.80;;;1.70;;
14984;SDS011;7588;62.368;25.902;2023-04-03T16:06:35;10.47;;;3.13;;
14984;SDS011;7588;62.368;25.902;2023-04-03T16:09:02;4.20;;;2.80;;
14984;SDS011;7588;62.368;25.902;2023-04-03T16:11:28;5.00;;;2.70;;
14984;SDS011;7588;62.368;25.902;2023-04-03T16:13:54;9.20;;;3.10;;
14984;SDS011;7588;62.368;25.902;2023-04-03T16:16:21;9.80;;;2.40;;
14984;SDS011;7588;62.368;25.902;2023-04-03T16:18:48;4.60;;;2.17;;
14984;SDS011;7588;62.368;25.902;2023-04-03T16:21:15;4.30;;;2.10;;
14984;SDS011;7588;62.368;25.902;2023-04-03T16:23:41;8.37;;;5.23;;
14984;SDS011;7588;62.368;25.902;2023-04-03T16:26:08;10.87;;;3.83;;
14984;SDS011;7588;62.368;25.902;2023-04-03T16:28:34;15.93;;;3.80;;
14984;SDS011;7588;62.368;25.902;2023-04-03T16:30:59;3.40;;;2.40;;
14984;SDS011;7588;62.368;25.902;2023-04-03T16:33:26;3.43;;;2.67;;
14984;SDS011;7588;62.368;25.902;2023-04-03T16:35:53;7.83;;;2.77;;
14984;SDS011;7588;62.368;25.902;2023-04-03T16:38:18;3.60;;;2.50;;
14984;SDS011;7588;62.368;25.902;2023-04-03T16:40:45;3.33;;;2.23;;
14984;SDS011;7588;62.368;25.902;2023-04-03T16:43:11;6.57;;;3.63;;
14984;SDS011;7588;62.368;25.902;2023-04-03T16:45:37;7.57;;;2.93;;
14984;SDS011;7588;62.368;25.902;2023-04-03T16:48:03;25.37;;;5.50;;
14984;SDS011;7588;62.368;25.902;2023-04-03T16:50:29;17.67;;;3.80;;
14984;SDS011;7588;62.368;25.902;2023-04-03T16:52:55;15.77;;;3.73;;
14984;SDS011;7588;62.368;25.902;2023-04-03T16:55:20;38.40;;;6.23;;
14984;SDS011;7588;62.368;25.902;2023-04-03T16:57:46;27.80;;;5.20;;
14984;SDS011;7588;62.368;25.902;2023-04-03T17:00:12;18.53;;;3.70;;
14984;SDS011;7588;62.368;25.902;2023-04-03T17:02:39;30.03;;;4.53;;
14984;SDS011;7588;62.368;25.902;2023-04-03T17:05:05;24.47;;;3.87;;
14984;SDS011;7588;62.368;25.902;2023-04-03T17:07:31;26.63;;;5.10;;